Time;durP1;ratioP1;P1;durP2;ratioP2;P2;SDS_P1;SDS_P2;PMS_P1;PMS_P2;Temp;Humidity;BMP_temperature;BMP_pressure;BME280_temperature;BME280_humidity;BME280_pressure;Samples;Min_cycle;Max_cycle;Signal;HPM_P1;HPM_P2
2022/08/01 00:01:24;;;;;;;976.53;891.22;;;22.20;99.90;;;;;;5110585;27;20220;-79
2022/08/01 00:03:51;;;;;;;969.75;884.92;;;22.20;99.90;;;;;;5112271;28;20197;-79
2022/08/01 00:06:18;;;;;;;957.45;872.88;;;22.20;99.90;;;;;;5105901;28;20203;-79
2022/08/01 00:08:45;;;;;;;966.88;881.90;;;22.20;99.90;;;;;;5110761;27;20667;-78
2022/08/01 00:11:13;;;;;;;966.83;881.90;;;22.20;99.90;;;;;;5107856;28;20289;-80
2022/08/01 00:13:40;;;;;;;966.88;881.90;;;22.20;99.90;;;;;;5112187;28;20201;-80
2022/08/01 00:16:07;;;;;;;955.67;871.28;;;22.20;99.90;;;;;;5110527;28;20193;-78
2022/08/01 00:18:35;;;;;;;977.63;892.25;;;22.10;99.90;;;;;;5112893;28;20193;-82
2022/08/01 00:21:02;;;;;;;966.13;881.22;;;22.10;99.90;;;;;;5111241;28;20297;-81
2022/08/01 00:23:28;;;;;;;960.00;875.35;;;22.10;99.90;;;;;;5112659;28;20620;-81
2022/08/01 00:25:55;;;;;;;969.85;884.53;;;22.10;99.90;;;;;;5111650;28;20193;-81
2022/08/01 00:28:23;;;;;;;966.05;881.05;;;22.10;99.90;;;;;;5111089;28;20227;-82
2022/08/01 00:30:50;;;;;;;961.42;876.55;;;22.10;99.90;;;;;;5109283;28;20232;-81
2022/08/01 00:33:17;;;;;;;962.60;877.80;;;22.10;99.90;;;;;;5112706;28;20244;-81
2022/08/01 00:35:44;;;;;;;966.75;882.08;;;22.10;99.90;;;;;;5111844;28;20193;-80
2022/08/01 00:38:11;;;;;;;948.78;864.45;;;22.10;99.90;;;;;;5104396;28;20204;-79
2022/08/01 00:40:38;;;;;;;951.92;867.35;;;22.10;99.90;;;;;;5109582;28;20552;-81
2022/08/01 00:43:05;;;;;;;964.35;879.05;;;22.10;99.90;;;;;;5105845;27;20200;-79
2022/08/01 00:45:33;;;;;;;960.05;874.67;;;22.00;99.90;;;;;;5110492;28;20623;-81
2022/08/01 00:48:00;;;;;;;950.15;865.28;;;22.00;99.90;;;;;;5110533;28;20197;-81
2022/08/01 00:50:27;;;;;;;953.58;868.47;;;22.00;99.90;;;;;;5112416;28;20188;-81
2022/08/01 00:52:55;;;;;;;965.15;879.42;;;22.00;99.90;;;;;;5112201;28;20197;-80
2022/08/01 00:55:22;;;;;;;959.05;873.85;;;22.00;99.90;;;;;;5113026;28;20189;-81
2022/08/01 00:57:50;;;;;;;955.55;870.65;;;22.00;99.90;;;;;;5110162;28;20564;-81
2022/08/01 01:00:17;;;;;;;962.03;876.70;;;22.00;99.90;;;;;;5112039;28;20213;-80
2022/08/01 01:02:45;;;;;;;952.17;867.40;;;22.00;99.90;;;;;;5110858;28;20217;-81
2022/08/01 01:05:12;;;;;;;953.72;868.63;;;22.00;99.90;;;;;;5107517;28;20670;-81
2022/08/01 01:07:45;;;;;;;969.75;883.95;;;22.00;99.90;;;;;;5096583;28;20586;-81
2022/08/01 01:10:18;;;;;;;948.97;863.70;;;22.00;99.90;;;;;;5109956;28;20189;-80
2022/08/01 01:12:51;;;;;;;960.08;874.47;;;21.90;99.90;;;;;;5106769;28;20185;-81
2022/08/01 01:15:23;;;;;;;941.58;856.65;;;21.90;99.90;;;;;;5109887;28;20197;-79
2022/08/01 01:17:56;;;;;;;960.88;875.17;;;21.90;99.90;;;;;;5109901;28;20201;-79
2022/08/01 01:20:31;;;;;;;951.13;865.38;;;21.90;99.90;;;;;;5111622;28;20216;-79
2022/08/01 01:23:17;;;;;;;945.25;859.50;;;21.90;99.90;;;;;;5109795;28;20207;-79
2022/08/01 01:26:02;;;;;;;940.97;856.03;;;21.90;99.90;;;;;;5111639;28;20551;-80
2022/08/01 01:28:36;;;;;;;940.95;855.78;;;21.90;99.90;;;;;;5106275;28;20250;-80
2022/08/01 01:31:09;;;;;;;946.15;861.05;;;21.90;99.90;;;;;;5101617;28;20194;-80
2022/08/01 01:33:38;;;;;;;956.63;870.78;;;21.90;99.90;;;;;;5109508;28;20199;-80
2022/08/01 01:36:10;;;;;;;945.25;859.65;;;21.90;99.90;;;;;;5110039;27;20199;-81
2022/08/01 01:38:42;;;;;;;945.28;859.55;;;21.90;99.90;;;;;;5106173;28;20193;-81
2022/08/01 01:41:10;;;;;;;937.38;852.17;;;21.80;99.90;;;;;;5107136;28;20748;-80
2022/08/01 01:43:38;;;;;;;949.25;863.38;;;21.80;99.90;;;;;;5099683;28;20189;-80
2022/08/01 01:46:08;;;;;;;940.55;857.58;;;21.80;99.90;;;;;;5110584;28;20651;-79
2022/08/01 01:48:36;;;;;;;961.60;877.95;;;21.80;99.90;;;;;;5110323;28;20193;-79
2022/08/01 01:51:04;;;;;;;948.13;865.33;;;21.80;99.90;;;;;;5107351;28;20568;-80
2022/08/01 01:53:34;;;;;;;938.50;856.55;;;21.80;99.90;;;;;;5110550;28;20205;-80
2022/08/01 01:56:02;;;;;;;939.08;857.05;;;21.80;99.90;;;;;;5107116;28;20196;-82
2022/08/01 01:58:32;;;;;;;928.05;846.38;;;21.80;99.90;;;;;;5111162;28;20197;-82
2022/08/01 02:01:01;;;;;;;943.80;861.72;;;21.80;99.90;;;;;;5108060;28;20227;-79
2022/08/01 02:03:30;;;;;;;945.55;862.97;;;21.80;99.90;;;;;;5106328;28;20189;-78
2022/08/01 02:05:58;;;;;;;959.40;876.42;;;21.70;99.90;;;;;;5107621;28;20204;-80
2022/08/01 02:08:26;;;;;;;959.58;876.50;;;21.80;99.90;;;;;;5104401;28;20201;-79
2022/08/01 02:13:41;;;;;;;927.33;845.13;;;21.80;99.90;;;;;;5109418;28;20306;-80
2022/08/01 02:16:10;;;;;;;944.58;861.90;;;21.70;99.90;;;;;;5110942;28;20197;-80
2022/08/01 02:18:39;;;;;;;935.85;852.88;;;21.70;99.90;;;;;;5109934;28;20188;-80
2022/08/01 02:21:12;;;;;;;943.15;860.67;;;21.70;99.90;;;;;;5109717;28;20298;-80
2022/08/01 02:23:41;;;;;;;936.40;853.83;;;21.70;99.90;;;;;;5110667;28;20197;-80
2022/08/01 02:26:10;;;;;;;946.95;864.00;;;21.70;99.90;;;;;;5106943;28;20560;-81
2022/08/01 02:28:42;;;;;;;941.92;858.92;;;21.70;99.90;;;;;;5104927;28;20572;-83
2022/08/01 02:31:14;;;;;;;942.67;859.30;;;21.70;99.90;;;;;;5108597;28;20654;-81
2022/08/01 02:33:47;;;;;;;949.40;865.63;;;21.70;99.90;;;;;;5110862;28;20657;-80
2022/08/01 02:36:17;;;;;;;947.50;863.35;;;21.70;99.90;;;;;;5107544;28;20208;-80
2022/08/01 02:38:46;;;;;;;944.83;859.72;;;21.70;99.90;;;;;;5104568;28;20200;-80
2022/08/01 02:41:21;;;;;;;952.40;866.60;;;21.60;99.90;;;;;;5108004;28;20223;-81
2022/08/01 02:43:51;;;;;;;939.45;853.88;;;21.60;99.90;;;;;;5109246;28;20196;-80
2022/08/01 02:46:23;;;;;;;941.60;856.10;;;21.60;99.90;;;;;;5108839;28;20627;-80
2022/08/01 02:48:54;;;;;;;938.38;852.88;;;21.60;99.90;;;;;;5109180;28;20232;-85
2022/08/01 02:51:24;;;;;;;933.67;848.30;;;21.60;99.90;;;;;;5111137;28;20187;-84
2022/08/01 02:53:52;;;;;;;926.13;841.15;;;21.60;99.90;;;;;;5109904;28;20663;-83
2022/08/01 02:56:22;;;;;;;941.33;855.83;;;21.60;99.90;;;;;;5105574;28;20221;-82
2022/08/01 02:58:51;;;;;;;934.67;850.22;;;21.60;99.90;;;;;;5109035;28;20196;-80
2022/08/01 03:01:19;;;;;;;932.83;849.55;;;21.60;99.90;;;;;;5107180;28;20717;-81
2022/08/01 03:03:46;;;;;;;933.58;850.15;;;21.60;99.90;;;;;;5108852;28;20197;-80
2022/08/01 03:06:16;;;;;;;935.08;851.40;;;21.50;99.90;;;;;;5110831;28;20193;-80
2022/08/01 03:08:43;;;;;;;930.90;847.05;;;21.50;99.90;;;;;;5104854;28;20201;-80
2022/08/01 03:11:12;;;;;;;927.92;844.00;;;21.50;99.90;;;;;;5106310;28;20193;-80
2022/08/01 03:13:41;;;;;;;936.92;852.47;;;21.50;99.90;;;;;;5108826;28;20213;-80
2022/08/01 03:16:10;;;;;;;922.88;838.80;;;21.50;99.90;;;;;;5106943;28;20579;-79
2022/08/01 03:18:38;;;;;;;913.92;829.78;;;21.50;99.90;;;;;;5103285;28;20572;-79
2022/08/01 03:21:07;;;;;;;933.42;848.75;;;21.50;99.90;;;;;;5114482;28;20220;-79
2022/08/01 03:23:37;;;;;;;943.22;858.28;;;21.50;99.90;;;;;;5113684;28;20208;-79
2022/08/01 03:26:06;;;;;;;912.20;828.15;;;21.50;99.90;;;;;;5110254;28;20201;-80
2022/08/01 03:28:33;;;;;;;935.70;851.22;;;21.50;99.90;;;;;;5113888;28;20196;-79
2022/08/01 03:31:02;;;;;;;942.35;857.50;;;21.40;99.90;;;;;;5110775;28;20211;-83
2022/08/01 03:33:29;;;;;;;931.95;847.10;;;21.50;99.90;;;;;;5112254;28;20201;-78
2022/08/01 03:35:57;;;;;;;933.38;848.90;;;21.40;99.90;;;;;;5114178;28;20556;-80
2022/08/01 03:38:26;;;;;;;923.17;838.97;;;21.40;99.90;;;;;;5102268;27;20209;-79
2022/08/01 03:41:00;;;;;;;935.30;850.42;;;21.40;99.90;;;;;;5110368;28;20194;-80
2022/08/01 03:43:35;;;;;;;928.15;843.53;;;21.40;99.90;;;;;;5109081;28;20544;-81
2022/08/01 03:46:07;;;;;;;923.10;838.70;;;21.40;99.90;;;;;;5102715;28;20627;-79
2022/08/01 03:48:37;;;;;;;948.95;863.45;;;21.40;99.90;;;;;;5111171;28;20242;-80
2022/08/01 03:51:05;;;;;;;918.67;833.58;;;21.40;99.90;;;;;;5113627;28;20659;-79
2022/08/01 03:53:34;;;;;;;902.15;817.97;;;21.40;99.90;;;;;;5113670;28;20655;-81
2022/08/01 03:56:04;;;;;;;918.45;833.70;;;21.40;99.90;;;;;;5113801;28;20193;-81
2022/08/01 03:58:31;;;;;;;909.17;824.63;;;21.40;99.90;;;;;;5109743;28;20193;-81
2022/08/01 04:00:59;;;;;;;919.78;835.03;;;21.40;99.90;;;;;;5111788;28;20200;-80
2022/08/01 04:03:26;;;;;;;936.97;851.53;;;21.40;99.90;;;;;;5112853;28;20224;-80
2022/08/01 04:05:53;;;;;;;930.50;844.90;;;21.40;99.90;;;;;;5108843;28;20200;-81
2022/08/01 04:08:20;;;;;;;937.55;851.95;;;21.30;99.90;;;;;;5103929;28;20204;-80
2022/08/01 04:10:46;;;;;;;926.30;841.13;;;21.30;99.90;;;;;;5113336;27;20739;-80
2022/08/01 04:13:15;;;;;;;908.10;824.05;;;21.30;99.90;;;;;;5104225;28;20189;-81
2022/08/01 04:15:41;;;;;;;916.90;831.75;;;21.30;99.90;;;;;;5112138;28;20193;-81
2022/08/01 04:18:08;;;;;;;919.25;834.13;;;21.30;99.90;;;;;;5111619;28;20197;-81
2022/08/01 04:20:35;;;;;;;942.47;856.45;;;21.30;99.90;;;;;;5105988;28;20213;-80
2022/08/01 04:23:02;;;;;;;932.38;847.70;;;21.30;99.90;;;;;;5098463;28;20224;-80
2022/08/01 04:25:33;;;;;;;924.70;842.63;;;21.30;99.90;;;;;;5113640;28;20651;-81
2022/08/01 04:28:03;;;;;;;928.30;847.22;;;21.30;99.90;;;;;;5107831;27;20197;-79
2022/08/01 04:30:35;;;;;;;922.63;842.10;;;21.20;99.90;;;;;;5108855;28;20640;-81
2022/08/01 04:33:05;;;;;;;929.40;849.30;;;21.30;99.90;;;;;;5111843;28;20208;-79
2022/08/01 04:35:33;;;;;;;918.13;837.80;;;21.30;99.90;;;;;;5113746;28;20193;-81
2022/08/01 04:38:01;;;;;;;931.65;850.80;;;21.30;99.90;;;;;;5111814;28;20208;-80
2022/08/01 04:40:30;;;;;;;916.35;835.50;;;21.20;99.90;;;;;;5112331;28;20669;-80
2022/08/01 04:42:57;;;;;;;927.25;843.55;;;21.20;99.90;;;;;;5105390;27;20224;-81
2022/08/01 04:45:24;;;;;;;926.08;844.42;;;21.20;99.90;;;;;;5109197;28;20212;-82
2022/08/01 04:47:53;;;;;;;932.85;851.72;;;21.20;99.90;;;;;;5110873;28;20202;-81
2022/08/01 04:50:21;;;;;;;931.65;850.70;;;21.20;99.90;;;;;;5112179;28;20201;-82
2022/08/01 04:52:49;;;;;;;911.60;831.80;;;21.20;99.90;;;;;;5111886;28;20201;-81
2022/08/01 04:55:16;;;;;;;914.70;834.80;;;21.20;99.90;;;;;;5109820;28;20201;-81
2022/08/01 04:57:47;;;;;;;932.78;852.20;;;21.20;99.90;;;;;;5112811;28;20193;-81
2022/08/01 05:00:16;;;;;;;918.90;838.83;;;21.20;99.90;;;;;;5109516;28;20204;-81
2022/08/01 05:02:43;;;;;;;922.95;843.35;;;21.20;99.90;;;;;;5111758;28;20216;-81
2022/08/01 05:05:11;;;;;;;935.28;856.65;;;21.20;99.90;;;;;;5105654;28;20663;-81
2022/08/01 05:07:38;;;;;;;917.25;839.88;;;21.20;99.90;;;;;;5106607;28;20594;-82
2022/08/01 05:10:06;;;;;;;917.50;839.75;;;21.20;99.90;;;;;;5109875;28;20197;-81
2022/08/01 05:12:33;;;;;;;936.53;857.75;;;21.20;99.90;;;;;;5106357;28;20201;-81
2022/08/01 05:15:00;;;;;;;929.33;850.58;;;21.20;99.90;;;;;;5112140;28;20223;-81
2022/08/01 05:17:26;;;;;;;931.03;851.95;;;21.20;99.90;;;;;;5112176;28;20278;-81
2022/08/01 05:19:53;;;;;;;920.00;840.80;;;21.20;99.90;;;;;;5110939;28;20189;-82
2022/08/01 05:22:22;;;;;;;934.83;855.10;;;21.10;99.90;;;;;;5104682;28;20308;-82
2022/08/01 05:24:49;;;;;;;926.17;847.08;;;21.20;99.90;;;;;;5110108;28;20541;-82
2022/08/01 05:27:15;;;;;;;929.40;850.20;;;21.20;99.90;;;;;;5110596;28;20189;-81
2022/08/01 05:29:43;;;;;;;933.15;853.38;;;21.20;99.90;;;;;;5111381;28;20208;-82
2022/08/01 05:32:09;;;;;;;923.70;843.97;;;21.20;99.90;;;;;;5109341;28;20197;-81
2022/08/01 05:34:36;;;;;;;909.83;830.22;;;21.10;99.90;;;;;;5110832;28;20208;-83
2022/08/01 05:37:03;;;;;;;926.33;845.22;;;21.20;99.90;;;;;;5105530;28;20197;-82
2022/08/01 05:39:31;;;;;;;924.00;844.33;;;21.10;99.90;;;;;;5111916;28;20201;-80
2022/08/01 05:41:58;;;;;;;927.20;847.13;;;21.20;99.90;;;;;;5106922;28;20216;-80
2022/08/01 05:44:25;;;;;;;932.47;851.97;;;21.10;99.90;;;;;;5110269;27;20662;-82
2022/08/01 05:46:52;;;;;;;940.10;858.72;;;21.10;99.90;;;;;;5107716;28;20197;-83
2022/08/01 05:49:19;;;;;;;921.58;841.13;;;21.10;99.90;;;;;;5109645;28;20644;-83
2022/08/01 05:51:46;;;;;;;917.90;838.58;;;21.10;99.90;;;;;;5112054;28;20201;-82
2022/08/01 05:54:12;;;;;;;922.40;843.22;;;21.10;99.90;;;;;;5105502;28;20186;-85
2022/08/01 05:56:41;;;;;;;917.15;839.00;;;21.10;99.90;;;;;;5105564;28;20220;-80
2022/08/01 05:59:07;;;;;;;914.50;836.22;;;21.10;99.90;;;;;;5111076;27;20204;-80
2022/08/01 06:01:34;;;;;;;916.53;837.78;;;21.10;99.90;;;;;;5109809;28;20221;-80
2022/08/01 06:04:01;;;;;;;908.42;829.70;;;21.10;99.90;;;;;;5110895;28;20200;-80
2022/08/01 06:06:27;;;;;;;917.42;838.80;;;21.10;99.90;;;;;;5109859;28;20201;-79
2022/08/01 06:08:54;;;;;;;922.97;843.65;;;21.10;99.90;;;;;;5108516;28;20670;-80
2022/08/01 06:11:21;;;;;;;922.58;843.92;;;21.10;99.90;;;;;;5107066;28;20208;-80
2022/08/01 06:13:49;;;;;;;916.33;837.72;;;21.10;99.90;;;;;;5110456;28;20560;-80
2022/08/01 06:16:16;;;;;;;920.17;841.20;;;21.20;99.90;;;;;;5110345;28;20648;-79
2022/08/01 06:18:43;;;;;;;906.90;828.47;;;21.10;99.90;;;;;;5106916;28;20666;-80
2022/08/01 06:21:10;;;;;;;922.13;844.35;;;21.20;99.90;;;;;;5106333;28;20194;-80
2022/08/01 06:23:37;;;;;;;919.70;842.78;;;21.20;99.90;;;;;;5106674;28;20213;-80
2022/08/01 06:26:03;;;;;;;922.42;845.25;;;21.20;99.90;;;;;;5103656;28;20197;-81
2022/08/01 06:28:30;;;;;;;919.80;843.03;;;21.20;99.90;;;;;;5105099;28;20197;-80
2022/08/01 06:30:59;;;;;;;935.25;857.13;;;21.30;99.90;;;;;;5106334;28;20821;-79
2022/08/01 06:33:26;;;;;;;920.72;843.10;;;21.30;99.90;;;;;;5107945;28;20186;-80
2022/08/01 06:35:52;;;;;;;935.08;856.35;;;21.40;99.90;;;;;;5109789;28;20192;-80
2022/08/01 06:38:19;;;;;;;929.00;849.58;;;21.50;99.90;;;;;;5109785;28;20276;-82
2022/08/01 06:40:46;;;;;;;943.22;862.95;;;21.60;99.90;;;;;;5093081;28;20198;-79
2022/08/01 06:43:13;;;;;;;938.05;858.08;;;21.60;99.90;;;;;;5101662;28;20556;-80
2022/08/01 06:45:40;;;;;;;946.72;866.50;;;21.60;99.90;;;;;;5109300;28;20205;-80
2022/08/01 06:48:08;;;;;;;932.28;852.63;;;21.60;99.90;;;;;;5109649;28;20193;-81
2022/08/01 06:50:36;;;;;;;944.30;863.97;;;21.60;99.90;;;;;;5105093;28;20200;-79
2022/08/01 06:53:03;;;;;;;941.40;861.53;;;21.60;99.90;;;;;;5110167;28;20196;-80
2022/08/01 06:55:30;;;;;;;942.22;862.42;;;21.60;99.90;;;;;;5112717;28;20226;-80
2022/08/01 06:57:56;;;;;;;932.10;852.17;;;21.60;99.90;;;;;;5110668;27;20580;-78
2022/08/01 07:00:24;;;;;;;931.92;851.47;;;21.50;99.90;;;;;;5114281;28;20197;-79
2022/08/01 07:02:52;;;;;;;928.65;848.47;;;21.50;99.90;;;;;;5112665;28;20213;-82
2022/08/01 07:05:21;;;;;;;937.13;856.72;;;21.50;99.90;;;;;;5113821;27;20189;-78
2022/08/01 07:07:47;;;;;;;940.08;859.22;;;21.50;99.90;;;;;;5108168;27;20647;-79
2022/08/01 07:10:14;;;;;;;936.60;855.58;;;21.50;99.90;;;;;;5113890;28;20265;-81
2022/08/01 07:12:41;;;;;;;925.13;844.35;;;21.50;99.90;;;;;;5112770;28;20204;-79
2022/08/01 07:15:10;;;;;;;938.75;857.35;;;21.60;99.90;;;;;;5113312;28;20197;-81
2022/08/01 07:17:39;;;;;;;939.80;858.58;;;21.60;99.90;;;;;;5113492;28;20235;-80
2022/08/01 07:20:07;;;;;;;948.03;866.50;;;21.60;99.90;;;;;;5111619;28;20246;-79
2022/08/01 07:22:36;;;;;;;934.15;853.17;;;21.60;99.90;;;;;;5113890;28;20208;-80
2022/08/01 07:25:03;;;;;;;936.00;854.85;;;21.60;99.90;;;;;;5110646;28;20199;-80
2022/08/01 07:27:30;;;;;;;951.35;869.78;;;21.70;99.90;;;;;;5112420;28;20207;-79
2022/08/01 07:29:57;;;;;;;944.13;862.58;;;21.70;99.90;;;;;;5110772;28;20201;-80
2022/08/01 07:32:24;;;;;;;949.50;867.92;;;21.70;99.90;;;;;;5112141;28;20644;-76
2022/08/01 07:34:50;;;;;;;929.00;848.33;;;21.70;99.90;;;;;;5113425;28;20207;-78
2022/08/01 07:37:17;;;;;;;939.05;857.38;;;21.70;99.90;;;;;;5112036;27;20212;-78
2022/08/01 07:39:45;;;;;;;947.88;865.95;;;21.70;99.90;;;;;;5109813;28;20190;-81
2022/08/01 07:42:12;;;;;;;952.30;870.83;;;21.70;99.90;;;;;;5111410;28;20224;-81
2022/08/01 07:44:39;;;;;;;960.58;879.00;;;21.80;99.90;;;;;;5109926;28;20640;-82
2022/08/01 07:47:06;;;;;;;945.28;863.80;;;21.80;99.90;;;;;;5114247;28;20666;-83
2022/08/01 07:49:33;;;;;;;953.22;871.50;;;21.90;99.90;;;;;;5111888;28;20200;-82
2022/08/01 07:52:00;;;;;;;963.25;880.97;;;22.10;99.90;;;;;;5113999;28;20193;-81
2022/08/01 07:54:28;;;;;;;971.42;889.08;;;22.30;99.90;;;;;;5112355;28;20216;-80
2022/08/01 07:56:56;;;;;;;955.85;874.22;;;22.40;99.90;;;;;;5107782;28;20212;-81
2022/08/01 07:59:23;;;;;;;983.72;901.33;;;22.40;99.90;;;;;;5116900;27;20201;-81
2022/08/01 08:01:50;;;;;;;975.78;893.97;;;22.40;99.90;;;;;;5103386;28;20252;-81
2022/08/01 08:04:17;;;;;;;976.58;894.08;;;22.40;99.90;;;;;;5106439;28;20616;-80
2022/08/01 08:06:44;;;;;;;992.63;909.80;;;22.50;99.90;;;;;;5106697;27;21482;-80
2022/08/01 08:09:11;;;;;;;968.45;886.60;;;22.50;99.90;;;;;;5112550;28;20197;-81
2022/08/01 08:11:38;;;;;;;981.83;899.47;;;22.50;99.90;;;;;;5104723;28;20197;-80
2022/08/01 08:14:06;;;;;;;969.25;887.38;;;22.50;99.90;;;;;;5106505;28;20633;-80
2022/08/01 08:16:32;;;;;;;975.25;892.92;;;22.50;99.90;;;;;;5112148;28;20575;-79
2022/08/01 08:18:59;;;;;;;980.50;898.50;;;22.40;99.90;;;;;;5112499;28;20200;-80
2022/08/01 08:21:27;;;;;;;973.38;892.22;;;22.40;99.90;;;;;;5109806;28;20201;-79
2022/08/01 08:26:38;;;;;;;979.88;898.05;;;22.40;99.90;;;;;;5105471;28;20567;-78
2022/08/01 08:29:07;;;;;;;978.85;897.17;;;22.30;99.90;;;;;;5112234;27;20238;-79
2022/08/01 08:31:34;;;;;;;966.35;884.83;;;22.30;99.90;;;;;;5109389;28;20197;-79
2022/08/01 08:34:01;;;;;;;972.90;891.40;;;22.20;99.90;;;;;;5111926;28;20199;-79
2022/08/01 08:36:28;;;;;;;968.80;887.60;;;22.20;99.90;;;;;;5112147;28;20212;-79
2022/08/01 08:38:55;;;;;;;971.88;890.70;;;22.10;99.90;;;;;;5112235;28;20559;-79
2022/08/01 08:41:23;;;;;;;958.00;877.22;;;22.10;99.90;;;;;;5104057;28;20243;-79
2022/08/01 08:43:49;;;;;;;950.92;870.42;;;22.10;99.90;;;;;;5110266;28;20232;-79
2022/08/01 08:46:19;;;;;;;963.92;883.22;;;22.10;99.90;;;;;;5111063;28;20689;-79
2022/08/01 08:48:46;;;;;;;961.40;881.30;;;22.20;99.90;;;;;;5109112;28;20197;-78
2022/08/01 08:51:14;;;;;;;955.97;876.83;;;22.20;99.90;;;;;;5112131;28;20536;-79
2022/08/01 08:53:43;;;;;;;965.78;886.30;;;22.20;99.90;;;;;;5105393;28;20197;-78
2022/08/01 08:56:12;;;;;;;969.35;889.72;;;22.30;99.90;;;;;;5111467;28;20193;-79
2022/08/01 08:58:39;;;;;;;977.13;897.13;;;22.40;99.90;;;;;;5109183;28;20201;-79
2022/08/01 09:01:06;;;;;;;980.15;899.75;;;22.50;99.90;;;;;;5110092;28;20224;-79
2022/08/01 09:03:35;;;;;;;981.10;900.45;;;22.60;99.90;;;;;;5104333;28;20228;-79
2022/08/01 09:06:02;;;;;;;994.57;913.17;;;22.70;99.90;;;;;;5103642;28;20193;-79
2022/08/01 09:08:29;;;;;;;991.37;910.47;;;22.70;99.90;;;;;;5111503;27;20577;-79
2022/08/01 09:10:56;;;;;;;990.75;909.65;;;22.80;99.90;;;;;;5110932;28;20824;-78
2022/08/01 09:13:23;;;;;;;994.22;912.92;;;22.90;99.90;;;;;;5111610;28;20551;-78
2022/08/01 09:15:53;;;;;;;998.05;918.08;;;22.80;99.90;;;;;;5110162;28;20691;-79
2022/08/01 09:18:29;;;;;;;1005.53;925.45;;;22.90;99.90;;;;;;5098579;28;20251;-78
2022/08/01 09:21:17;;;;;;;1002.33;922.60;;;23.00;99.90;;;;;;5107529;28;20224;-78
2022/08/01 09:23:47;;;;;;;999.25;919.72;;;23.00;99.90;;;;;;5110432;28;20671;-79
2022/08/01 09:26:16;;;;;;;987.13;908.00;;;23.00;99.90;;;;;;5107511;28;20246;-76
2022/08/01 09:28:44;;;;;;;983.43;904.83;;;23.00;99.90;;;;;;5108507;28;20462;-78
2022/08/01 09:31:12;;;;;;;994.97;916.05;;;23.00;99.90;;;;;;5106839;28;20446;-79
2022/08/01 09:33:49;;;;;;;998.83;919.53;;;22.90;99.90;;;;;;5107398;28;20197;-78
2022/08/01 09:36:17;;;;;;;993.85;914.45;;;22.90;99.90;;;;;;5110507;28;20466;-79
2022/08/01 09:38:44;;;;;;;998.47;918.83;;;22.90;99.90;;;;;;5109961;28;20675;-78
2022/08/01 09:41:11;;;;;;;990.75;911.35;;;23.00;99.90;;;;;;5110380;28;20193;-78
2022/08/01 09:43:38;;;;;;;1006.37;926.37;;;23.00;99.90;;;;;;5108223;27;20247;-79
2022/08/01 09:46:10;;;;;;;1004.97;924.92;;;23.00;99.90;;;;;;5111710;28;20457;-78
2022/08/01 09:48:39;;;;;;;1006.70;927.00;;;23.00;99.90;;;;;;5101641;27;20212;-80
2022/08/01 09:51:06;;;;;;;1006.63;926.58;;;23.00;99.90;;;;;;5111200;28;20461;-80
2022/08/01 09:53:47;;;;;;;1006.63;926.50;;;23.10;99.90;;;;;;5112312;28;20188;-82
2022/08/01 09:56:14;;;;;;;998.93;919.23;;;23.10;99.90;;;;;;5093917;28;20571;-80
2022/08/01 09:58:54;;;;;;;1000.60;920.65;;;23.10;99.90;;;;;;5109932;28;20455;-83
2022/08/01 10:01:22;;;;;;;992.53;913.08;;;23.10;99.90;;;;;;5109783;28;20334;-81
2022/08/01 10:04:05;;;;;;;1011.33;931.15;;;23.00;99.90;;;;;;5107499;28;20217;-82
2022/08/01 10:06:32;;;;;;;1006.53;926.97;;;23.00;99.90;;;;;;5106847;28;20201;-78
2022/08/01 10:09:00;;;;;;;1004.17;923.90;;;23.00;99.90;;;;;;5108347;28;20604;-79
2022/08/01 10:11:29;;;;;;;1014.53;933.93;;;23.10;99.90;;;;;;5109034;28;20587;-81
2022/08/01 10:13:56;;;;;;;1009.97;929.70;;;23.20;99.90;;;;;;5110271;27;20462;-80
2022/08/01 10:16:25;;;;;;;1019.40;938.73;;;23.30;99.90;;;;;;5110669;28;20469;-80
2022/08/01 10:18:53;;;;;;;1012.13;931.77;;;23.30;99.90;;;;;;5109896;28;20538;-78
2022/08/01 10:21:21;;;;;;;1011.97;931.37;;;23.40;99.90;;;;;;5108107;28;20459;-78
2022/08/01 10:23:48;;;;;;;1020.30;939.70;;;23.40;99.90;;;;;;5106636;28;20478;-78
2022/08/01 10:26:17;;;;;;;1015.90;934.93;;;23.40;99.90;;;;;;5109032;28;20459;-78
2022/08/01 10:28:48;;;;;;;1008.80;928.73;;;23.40;99.90;;;;;;5109767;28;20477;-79
2022/08/01 10:31:15;;;;;;;1015.87;934.87;;;23.40;99.90;;;;;;5105231;28;20443;-78
2022/08/01 10:33:42;;;;;;;1013.33;932.03;;;23.40;99.90;;;;;;5108582;28;20588;-81
2022/08/01 10:36:10;;;;;;;1015.90;932.73;;;23.50;99.90;;;;;;5102890;28;21006;-82
2022/08/01 10:38:38;;;;;;;1035.17;951.07;;;23.50;99.90;;;;;;5110167;28;20534;-81
2022/08/01 10:41:06;;;;;;;1025.33;941.33;;;23.50;99.90;;;;;;5099574;28;21279;-81
2022/08/01 10:43:34;;;;;;;1011.30;927.83;;;23.50;99.90;;;;;;5107487;28;20467;-79
2022/08/01 10:46:01;;;;;;;1033.73;949.63;;;23.60;99.90;;;;;;5103593;28;20454;-80
2022/08/01 10:48:36;;;;;;;1022.17;939.27;;;23.60;99.90;;;;;;5109817;28;20459;-81
2022/08/01 10:51:05;;;;;;;1021.47;938.80;;;23.60;99.90;;;;;;5108508;28;20438;-80
2022/08/01 10:53:32;;;;;;;1038.20;953.50;;;23.60;99.90;;;;;;5111177;28;20897;-81
2022/08/01 10:56:03;;;;;;;1025.97;941.03;;;23.60;99.90;;;;;;5111072;28;20489;-80
2022/08/01 10:58:33;;;;;;;1020.33;933.33;;;23.60;99.90;;;;;;5101975;28;20919;-80
2022/08/01 11:01:24;;;;;;;1017.47;930.30;;;23.70;99.90;;;;;;5109063;28;20617;-79
2022/08/01 11:04:13;;;;;;;1033.33;946.07;;;23.60;99.90;;;;;;5106851;28;20467;-80
2022/08/01 11:06:43;;;;;;;1029.93;942.93;;;23.60;99.90;;;;;;5095788;28;20458;-79
2022/08/01 11:09:26;;;;;;;1043.67;956.17;;;23.60;99.90;;;;;;5110296;28;20786;-80
2022/08/01 11:12:03;;;;;;;1016.50;930.00;;;23.60;99.90;;;;;;5105769;28;20455;-78
2022/08/01 11:14:30;;;;;;;1008.97;922.37;;;23.60;99.90;;;;;;5110685;28;20546;-80
2022/08/01 11:17:35;;;;;;;1028.37;941.17;;;23.60;99.90;;;;;;5106517;28;20471;-79
2022/08/01 11:20:10;;;;;;;1026.07;938.63;;;23.60;99.90;;;;;;5109062;28;20442;-80
2022/08/01 11:23:25;;;;;;;1011.27;924.23;;;23.60;99.90;;;;;;5109123;28;20206;-80
2022/08/01 11:26:15;;;;;;;1022.72;935.33;;;23.70;99.90;;;;;;5109892;28;20458;-81
2022/08/01 11:29:07;;;;;;;1021.63;934.28;;;23.70;99.90;;;;;;5108054;28;20205;-80
2022/08/01 11:31:34;;;;;;;1021.05;933.63;;;23.70;99.90;;;;;;5111013;28;20556;-85
2022/08/01 11:34:02;;;;;;;1031.88;944.08;;;23.70;99.90;;;;;;5106567;28;20193;-82
2022/08/01 11:36:30;;;;;;;1025.20;937.83;;;23.70;99.90;;;;;;5108939;28;20228;-80
2022/08/01 11:39:17;;;;;;;1027.25;940.22;;;23.70;99.90;;;;;;5110484;28;20205;-85
2022/08/01 11:41:45;;;;;;;1029.30;942.07;;;23.80;99.90;;;;;;5110077;28;20659;-82
2022/08/01 11:44:14;;;;;;;1033.10;945.38;;;23.80;99.90;;;;;;5113388;28;20475;-81
2022/08/01 11:47:04;;;;;;;1028.53;941.43;;;23.80;99.90;;;;;;5112364;28;20200;-82
2022/08/01 11:49:57;;;;;;;1018.50;931.53;;;23.80;99.90;;;;;;5096917;28;20467;-80
2022/08/01 11:52:29;;;;;;;1034.13;948.07;;;23.80;99.90;;;;;;5105138;28;20465;-83
2022/08/01 11:54:57;;;;;;;1030.63;945.73;;;23.80;99.90;;;;;;5109889;28;20450;-81
2022/08/01 11:57:24;;;;;;;1021.83;939.83;;;23.80;99.90;;;;;;5104318;27;20508;-80
2022/08/01 11:59:53;;;;;;;1033.97;951.57;;;23.80;99.90;;;;;;5112435;28;20945;-83
2022/08/01 12:02:22;;;;;;;1030.40;949.13;;;23.70;99.90;;;;;;5104754;28;20476;-82
2022/08/01 12:04:55;;;;;;;1018.97;939.17;;;23.80;99.90;;;;;;5108728;28;20485;-81
2022/08/01 12:07:25;;;;;;;1034.57;954.60;;;23.70;99.90;;;;;;5107500;27;20450;-82
2022/08/01 12:10:00;;;;;;;1025.03;945.97;;;23.80;99.90;;;;;;5107461;28;20450;-81
2022/08/01 12:12:27;;;;;;;1013.03;934.93;;;23.80;99.90;;;;;;5100416;28;20533;-80
2022/08/01 12:14:55;;;;;;;1028.77;950.20;;;23.80;99.90;;;;;;5110711;28;20447;-83
2022/08/01 12:17:30;;;;;;;1014.73;936.73;;;23.80;99.90;;;;;;5106776;28;20452;-81
2022/08/01 12:19:57;;;;;;;1012.77;934.37;;;23.90;99.90;;;;;;5094829;28;20462;-81
2022/08/01 12:22:26;;;;;;;1035.40;956.17;;;23.80;99.90;;;;;;5109122;28;20451;-81